Time;durP1;ratioP1;P1;durP2;ratioP2;P2;SDS_P1;SDS_P2;PMS_P1;PMS_P2;Temp;Humidity;BMP_temperature;BMP_pressure;BME280_temperature;BME280_humidity;BME280_pressure;Samples;Min_cycle;Max_cycle;Signal;HPM_P1;HPM_P2
2022/04/20 00:01:06;;;;;;;5.38;2.97;;;9.90;75.10;;;;;;4940173;28;20035;-75
2022/04/20 00:03:32;;;;;;;4.20;3.03;;;9.80;75.60;;;;;;4957662;28;20031;-75
2022/04/20 00:05:58;;;;;;;3.50;3.00;;;9.80;76.40;;;;;;4960504;28;20029;-74
2022/04/20 00:08:23;;;;;;;7.15;2.60;;;9.80;76.50;;;;;;4956517;28;20031;-75
2022/04/20 00:10:49;;;;;;;3.78;3.10;;;9.70;76.70;;;;;;4957778;28;20416;-76
2022/04/20 00:13:14;;;;;;;3.25;2.92;;;9.70;77.40;;;;;;4963740;28;20022;-75
2022/04/20 00:15:40;;;;;;;4.18;3.63;;;9.60;78.00;;;;;;4953015;28;20032;-76
2022/04/20 00:18:06;;;;;;;4.15;3.35;;;9.60;78.50;;;;;;4959343;28;20035;-76
2022/04/20 00:20:31;;;;;;;4.10;3.50;;;9.50;79.30;;;;;;4954188;28;20510;-76
2022/04/20 00:22:57;;;;;;;5.70;3.60;;;9.50;79.70;;;;;;4942456;28;20132;-76
2022/04/20 00:25:23;;;;;;;4.15;3.03;;;9.50;80.20;;;;;;4956929;28;20020;-76
2022/04/20 00:27:48;;;;;;;3.45;3.15;;;9.50;80.50;;;;;;4960951;28;20016;-77
2022/04/20 00:30:14;;;;;;;3.50;3.20;;;9.40;80.80;;;;;;4956742;28;20393;-77
2022/04/20 00:32:40;;;;;;;5.35;3.75;;;9.20;81.60;;;;;;4957653;28;20075;-74
2022/04/20 00:35:07;;;;;;;4.40;3.42;;;9.10;82.30;;;;;;4959420;28;20042;-76
2022/04/20 00:37:34;;;;;;;4.95;3.25;;;9.30;82.30;;;;;;4943121;29;20047;-74
2022/04/20 00:40:00;;;;;;;4.50;3.50;;;9.30;82.60;;;;;;4957358;28;20090;-75
2022/04/20 00:42:27;;;;;;;5.03;3.92;;;9.20;83.00;;;;;;4950257;28;20031;-76
2022/04/20 00:44:54;;;;;;;5.78;3.90;;;9.20;83.10;;;;;;4954132;28;20039;-77
2022/04/20 00:47:22;;;;;;;5.00;3.53;;;9.10;83.50;;;;;;4953345;28;20102;-76
2022/04/20 00:49:47;;;;;;;7.32;4.60;;;9.10;83.90;;;;;;4957938;28;20558;-76
2022/04/20 00:52:13;;;;;;;6.95;3.67;;;9.20;83.70;;;;;;4960313;28;20102;-75
2022/04/20 00:54:39;;;;;;;5.75;4.45;;;9.20;83.90;;;;;;4959940;28;20033;-75
2022/04/20 00:57:05;;;;;;;6.07;3.72;;;9.10;83.90;;;;;;4958778;28;20496;-76
2022/04/20 00:59:32;;;;;;;3.80;3.35;;;9.10;84.10;;;;;;4952318;28;20114;-75
2022/04/20 01:01:58;;;;;;;5.28;3.50;;;9.10;84.20;;;;;;4935345;29;20031;-76
2022/04/20 01:04:25;;;;;;;5.60;3.90;;;9.10;84.30;;;;;;4946882;29;20478;-76
2022/04/20 01:06:50;;;;;;;4.30;3.90;;;9.00;84.30;;;;;;4955623;28;20027;-76
2022/04/20 01:09:16;;;;;;;4.28;3.55;;;8.90;84.90;;;;;;4947286;29;20114;-74
2022/04/20 01:11:42;;;;;;;7.20;4.00;;;8.90;84.90;;;;;;4933443;29;20702;-75
2022/04/20 01:14:10;;;;;;;6.78;3.33;;;8.90;84.90;;;;;;4946912;29;20039;-75
2022/04/20 01:16:36;;;;;;;4.78;3.38;;;8.90;85.10;;;;;;4952804;28;20102;-76
2022/04/20 01:19:03;;;;;;;4.07;3.35;;;8.90;85.30;;;;;;4958011;28;20070;-76
2022/04/20 01:21:29;;;;;;;4.53;3.60;;;8.80;85.70;;;;;;4943274;28;20081;-76
2022/04/20 01:23:54;;;;;;;5.25;4.35;;;8.70;85.80;;;;;;4958989;28;20445;-75
2022/04/20 01:26:20;;;;;;;5.13;4.63;;;8.70;86.20;;;;;;4958998;28;20023;-76
2022/04/20 01:28:47;;;;;;;6.18;5.00;;;8.60;86.80;;;;;;4963045;28;20031;-75
2022/04/20 01:31:15;;;;;;;13.65;6.03;;;8.50;87.10;;;;;;4953033;28;20445;-76
2022/04/20 01:33:41;;;;;;;4.05;3.30;;;8.50;87.40;;;;;;4958831;28;20023;-75
2022/04/20 01:36:07;;;;;;;4.03;3.53;;;8.40;87.60;;;;;;4950747;29;20106;-76
2022/04/20 01:38:32;;;;;;;4.85;4.35;;;8.40;88.00;;;;;;4950759;29;20126;-76
2022/04/20 01:40:58;;;;;;;4.93;4.25;;;8.40;88.20;;;;;;4955574;28;20114;-75
2022/04/20 01:43:24;;;;;;;5.03;4.13;;;8.30;88.60;;;;;;4952110;29;20038;-76
2022/04/20 01:45:49;;;;;;;4.70;3.78;;;8.30;89.00;;;;;;4951111;28;20027;-75
2022/04/20 01:48:15;;;;;;;4.63;3.97;;;8.20;89.30;;;;;;4950856;28;20066;-75
2022/04/20 01:53:24;;;;;;;5.97;3.40;;;8.20;89.40;;;;;;4956475;29;20520;-75
2022/04/20 01:55:50;;;;;;;6.10;3.58;;;8.20;89.80;;;;;;4951776;29;20035;-76
2022/04/20 01:58:15;;;;;;;4.50;3.70;;;8.10;90.10;;;;;;4954540;28;20050;-76
2022/04/20 02:00:41;;;;;;;3.60;3.30;;;8.10;90.10;;;;;;4956702;28;20024;-74
2022/04/20 02:03:07;;;;;;;5.05;3.80;;;8.10;90.30;;;;;;4952919;28;20050;-75
2022/04/20 02:05:33;;;;;;;5.63;3.45;;;8.00;90.60;;;;;;4957915;28;20501;-76
2022/04/20 02:07:58;;;;;;;5.80;4.50;;;8.10;90.70;;;;;;4946123;28;20104;-76
2022/04/20 02:10:24;;;;;;;5.38;4.88;;;8.00;90.80;;;;;;4935749;29;20031;-76
2022/04/20 02:12:50;;;;;;;5.68;4.72;;;7.90;91.00;;;;;;4952170;28;20026;-75
2022/04/20 02:15:16;;;;;;;5.15;4.65;;;7.90;91.30;;;;;;4953290;28;20035;-75
2022/04/20 02:17:41;;;;;;;5.30;4.38;;;7.80;91.70;;;;;;4948312;29;20020;-76
2022/04/20 02:20:08;;;;;;;4.95;3.63;;;7.80;91.80;;;;;;4947683;29;20059;-75
2022/04/20 02:22:33;;;;;;;5.20;4.70;;;7.70;92.00;;;;;;4952767;28;20029;-76
2022/04/20 02:24:59;;;;;;;6.55;4.13;;;7.70;92.30;;;;;;4953207;29;20023;-75
2022/04/20 02:27:26;;;;;;;8.60;4.63;;;7.60;92.40;;;;;;4926803;29;20023;-76
2022/04/20 02:29:52;;;;;;;10.50;5.93;;;7.50;92.70;;;;;;4956091;29;20019;-75
2022/04/20 02:32:17;;;;;;;7.13;4.55;;;7.40;93.20;;;;;;4926498;29;20038;-75
2022/04/20 02:34:43;;;;;;;6.40;4.93;;;7.30;93.60;;;;;;4949381;29;20023;-75
2022/04/20 02:37:09;;;;;;;6.60;5.45;;;7.20;94.10;;;;;;4951063;29;20098;-76
2022/04/20 02:39:36;;;;;;;4.93;4.22;;;7.20;94.20;;;;;;4953364;28;20647;-76
2022/04/20 02:42:02;;;;;;;6.20;4.97;;;7.30;94.50;;;;;;4928192;29;20031;-75
2022/04/20 02:44:27;;;;;;;9.55;5.70;;;7.20;94.60;;;;;;4953208;29;20027;-75
2022/04/20 02:46:53;;;;;;;9.30;7.70;;;7.10;95.40;;;;;;4945961;29;20027;-76
2022/04/20 02:49:21;;;;;;;7.25;5.85;;;7.00;95.90;;;;;;4929185;29;20043;-76
2022/04/20 02:51:46;;;;;;;8.57;6.63;;;6.90;96.40;;;;;;4929051;29;20481;-76
2022/04/20 02:54:12;;;;;;;7.80;6.70;;;6.80;96.80;;;;;;4928066;29;20085;-77
2022/04/20 02:56:37;;;;;;;6.50;5.80;;;6.80;97.20;;;;;;4937959;28;20026;-75
2022/04/20 02:59:03;;;;;;;5.57;5.07;;;6.70;97.70;;;;;;4954851;28;20031;-77
2022/04/20 03:01:30;;;;;;;7.27;4.63;;;6.70;98.50;;;;;;4945383;29;20493;-75
2022/04/20 03:03:57;;;;;;;4.60;4.03;;;6.60;99.00;;;;;;4948313;29;20107;-76
2022/04/20 03:06:23;;;;;;;4.05;3.65;;;6.50;99.90;;;;;;4941639;29;20461;-76
2022/04/20 03:08:48;;;;;;;5.40;4.22;;;6.50;99.90;;;;;;4942599;29;20034;-76
2022/04/20 03:11:14;;;;;;;4.32;3.92;;;6.40;99.90;;;;;;4951940;28;20032;-76
2022/04/20 03:13:39;;;;;;;8.27;4.40;;;6.30;99.90;;;;;;4950181;28;20030;-75
2022/04/20 03:16:05;;;;;;;4.45;4.05;;;6.30;99.90;;;;;;4961779;28;20102;-76
2022/04/20 03:18:32;;;;;;;4.72;4.32;;;6.20;99.90;;;;;;4949463;29;20470;-75
2022/04/20 03:21:01;;;;;;;5.88;4.28;;;6.20;99.90;;;;;;4963244;28;20089;-74
2022/04/20 03:23:28;;;;;;;4.53;4.13;;;6.20;99.90;;;;;;4961776;28;20507;-76
2022/04/20 03:25:54;;;;;;;7.55;4.88;;;6.20;99.90;;;;;;4954839;28;20028;-76
2022/04/20 03:28:20;;;;;;;5.57;4.32;;;6.20;99.90;;;;;;4953456;28;20027;-76
2022/04/20 03:30:45;;;;;;;5.25;4.20;;;6.20;99.90;;;;;;4953028;28;20022;-76
2022/04/20 03:33:11;;;;;;;4.40;4.00;;;6.10;99.90;;;;;;4955537;28;20031;-76
2022/04/20 03:35:38;;;;;;;6.13;4.78;;;6.10;99.90;;;;;;4937536;28;20034;-76
2022/04/20 03:38:07;;;;;;;6.25;4.95;;;6.10;99.90;;;;;;4957118;28;20027;-76
2022/04/20 03:40:33;;;;;;;7.05;5.18;;;6.10;99.90;;;;;;4955173;28;20027;-76
2022/04/20 03:42:58;;;;;;;6.20;4.68;;;6.00;99.90;;;;;;4937181;28;20086;-76
2022/04/20 03:45:24;;;;;;;6.38;5.70;;;5.90;99.90;;;;;;4959229;28;20146;-77
2022/04/20 03:47:50;;;;;;;6.07;4.05;;;5.80;99.90;;;;;;4940623;28;20106;-76
2022/04/20 03:50:15;;;;;;;6.03;4.90;;;5.80;99.90;;;;;;4954208;28;20158;-77
2022/04/20 03:52:41;;;;;;;6.80;4.82;;;5.80;99.90;;;;;;4938606;29;20028;-75
2022/04/20 03:55:07;;;;;;;7.20;4.43;;;5.80;99.90;;;;;;4959449;28;20457;-76
2022/04/20 03:57:33;;;;;;;6.28;4.40;;;5.80;99.90;;;;;;4941161;28;20097;-75
2022/04/20 03:59:59;;;;;;;4.43;4.03;;;5.80;99.90;;;;;;4957984;28;20035;-76
2022/04/20 04:02:24;;;;;;;7.10;4.63;;;5.80;99.90;;;;;;4952706;28;20027;-77
2022/04/20 04:04:50;;;;;;;7.47;4.60;;;5.90;99.90;;;;;;4948509;28;20026;-76
2022/04/20 04:07:16;;;;;;;6.50;4.38;;;5.90;99.90;;;;;;4955716;29;20023;-76
2022/04/20 04:09:42;;;;;;;4.65;4.25;;;5.90;99.90;;;;;;4955348;29;20027;-75
2022/04/20 04:12:08;;;;;;;4.75;4.15;;;6.10;99.90;;;;;;4949614;29;20032;-75
2022/04/20 04:14:41;;;;;;;5.35;3.90;;;6.30;99.90;;;;;;4948301;29;20027;-76
2022/04/20 04:17:08;;;;;;;4.72;4.00;;;6.50;99.90;;;;;;4936860;29;20082;-76
2022/04/20 04:19:35;;;;;;;6.60;4.65;;;6.50;99.90;;;;;;4955389;29;20102;-76
2022/04/20 04:22:04;;;;;;;5.45;4.32;;;6.50;99.90;;;;;;4938752;29;20031;-75
2022/04/20 04:24:37;;;;;;;6.60;4.22;;;6.40;99.90;;;;;;4956456;28;20023;-76
2022/04/20 04:27:07;;;;;;;4.30;3.90;;;6.30;99.90;;;;;;4954555;29;20046;-75
2022/04/20 04:29:32;;;;;;;4.30;3.65;;;6.30;99.90;;;;;;4947989;29;20023;-76
2022/04/20 04:31:59;;;;;;;7.20;4.53;;;6.20;99.90;;;;;;4929652;29;20134;-77
2022/04/20 04:34:25;;;;;;;6.70;4.60;;;6.10;99.90;;;;;;4945637;29;20019;-76
2022/04/20 04:36:51;;;;;;;5.90;5.05;;;6.00;99.90;;;;;;4947190;29;20028;-75
2022/04/20 04:39:21;;;;;;;4.90;4.28;;;6.10;99.90;;;;;;4948102;28;20494;-76
2022/04/20 04:41:50;;;;;;;8.10;3.90;;;6.20;99.90;;;;;;4929758;29;20031;-77
2022/04/20 04:44:19;;;;;;;4.78;3.65;;;6.50;99.90;;;;;;4946859;29;20094;-76
2022/04/20 04:49:30;;;;;;;5.38;4.15;;;7.10;99.90;;;;;;4957216;28;20026;-76
2022/04/20 04:51:56;;;;;;;5.18;4.53;;;7.50;99.90;;;;;;4947392;29;20028;-76
2022/04/20 04:54:23;;;;;;;11.25;4.13;;;7.70;99.90;;;;;;4942981;29;20397;-76
2022/04/20 04:56:49;;;;;;;4.93;4.43;;;7.80;99.90;;;;;;4954943;28;20470;-76
2022/04/20 04:59:14;;;;;;;5.07;3.78;;;8.10;99.90;;;;;;4954626;29;20063;-75
2022/04/20 05:01:40;;;;;;;6.35;4.25;;;8.30;99.90;;;;;;4949340;29;20074;-77
2022/04/20 05:04:05;;;;;;;4.70;4.20;;;8.60;99.80;;;;;;4936968;29;20419;-76
2022/04/20 05:06:31;;;;;;;4.28;3.95;;;8.90;99.10;;;;;;4951754;28;20506;-76
2022/04/20 05:08:57;;;;;;;6.32;4.07;;;9.20;98.70;;;;;;4942760;28;20046;-76
2022/04/20 05:11:22;;;;;;;6.53;4.70;;;9.50;98.00;;;;;;4956614;28;20019;-76
2022/04/20 05:13:48;;;;;;;5.55;4.10;;;9.70;97.30;;;;;;4953206;28;20103;-77
2022/04/20 05:16:14;;;;;;;4.57;4.18;;;9.80;96.80;;;;;;4958881;28;20106;-76
2022/04/20 05:18:39;;;;;;;3.78;3.47;;;10.00;96.40;;;;;;4954596;28;20029;-76
2022/04/20 05:21:05;;;;;;;6.13;3.97;;;10.00;95.90;;;;;;4953288;28;20048;-76
2022/04/20 05:23:30;;;;;;;12.63;4.72;;;10.30;95.60;;;;;;4932579;29;20027;-76
2022/04/20 05:25:56;;;;;;;11.68;4.22;;;10.60;95.10;;;;;;4958774;28;20058;-76
2022/04/20 05:28:22;;;;;;;5.57;3.97;;;10.60;94.60;;;;;;4952125;28;20537;-76
2022/04/20 05:30:48;;;;;;;5.03;4.18;;;10.90;94.20;;;;;;4959445;28;20062;-76
2022/04/20 05:33:14;;;;;;;5.63;3.85;;;11.10;93.70;;;;;;4954294;28;20062;-75
2022/04/20 05:35:39;;;;;;;4.47;3.75;;;11.20;93.30;;;;;;4957632;28;20055;-76
2022/04/20 05:43:33;;;;;;;6.32;4.15;;;11.50;92.60;;;;;;4960174;28;20105;-77
2022/04/20 05:45:59;;;;;;;4.47;4.07;;;11.30;92.60;;;;;;4959128;28;20477;-76
2022/04/20 05:48:25;;;;;;;5.68;3.75;;;11.50;92.20;;;;;;4957865;28;20109;-75
2022/04/20 05:50:50;;;;;;;4.80;4.30;;;11.50;92.20;;;;;;4958525;28;20034;-77
2022/04/20 05:53:16;;;;;;;7.93;4.20;;;11.60;92.00;;;;;;4952356;28;20446;-76
2022/04/20 05:55:42;;;;;;;5.00;3.28;;;11.70;91.70;;;;;;4951686;28;20024;-75
2022/04/20 05:58:07;;;;;;;5.07;3.70;;;11.50;91.70;;;;;;4957165;28;20055;-76
2022/04/20 06:00:33;;;;;;;3.97;3.60;;;11.40;91.30;;;;;;4941888;28;20042;-76
2022/04/20 06:02:59;;;;;;;11.13;4.25;;;10.80;91.90;;;;;;4959889;28;20031;-75
2022/04/20 06:05:24;;;;;;;6.55;3.72;;;9.90;93.10;;;;;;4943639;28;20024;-77
2022/04/20 06:07:50;;;;;;;4.32;3.92;;;9.50;93.90;;;;;;4961013;28;20023;-76
2022/04/20 06:10:16;;;;;;;5.65;4.20;;;9.20;94.70;;;;;;4950167;28;20106;-75
2022/04/20 06:12:42;;;;;;;5.25;4.15;;;8.80;95.20;;;;;;4948982;28;20038;-75
2022/04/20 06:15:08;;;;;;;5.03;4.45;;;8.60;95.80;;;;;;4956785;28;20126;-74
2022/04/20 06:17:34;;;;;;;6.75;3.85;;;8.50;95.80;;;;;;4949627;28;20159;-75
2022/04/20 06:20:01;;;;;;;5.72;3.72;;;8.40;95.70;;;;;;4960290;28;20034;-76
2022/04/20 06:22:26;;;;;;;4.50;3.85;;;8.30;96.00;;;;;;4957650;28;20572;-75
2022/04/20 06:24:52;;;;;;;3.72;3.42;;;8.40;96.20;;;;;;4957280;28;20102;-74
2022/04/20 06:27:17;;;;;;;3.97;3.55;;;8.40;96.10;;;;;;4956513;28;20024;-75
2022/04/20 06:29:43;;;;;;;8.77;4.05;;;8.40;96.10;;;;;;4960842;28;20019;-75
2022/04/20 06:32:09;;;;;;;6.07;3.67;;;8.50;96.00;;;;;;4941100;28;20042;-75
2022/04/20 06:34:35;;;;;;;5.97;4.30;;;8.60;95.90;;;;;;4958844;28;20027;-75
2022/04/20 06:37:00;;;;;;;5.43;3.45;;;8.60;95.90;;;;;;4944096;28;20126;-75
2022/04/20 06:39:26;;;;;;;4.30;3.78;;;8.70;95.90;;;;;;4955221;28;20098;-77
2022/04/20 06:41:52;;;;;;;3.92;3.63;;;8.60;95.80;;;;;;4956950;28;20032;-75
2022/04/20 06:44:18;;;;;;;3.80;3.30;;;8.60;96.00;;;;;;4952021;28;20034;-75
2022/04/20 06:46:45;;;;;;;4.53;4.10;;;8.70;95.80;;;;;;4953954;28;20082;-76
2022/04/20 06:49:10;;;;;;;6.28;4.30;;;8.60;95.90;;;;;;4936692;28;20110;-75
2022/04/20 06:59:50;;;;;;;4.25;3.42;;;9.10;94.80;;;;;;4956057;28;20031;-74
2022/04/20 07:02:15;;;;;;;4.68;3.53;;;9.30;94.80;;;;;;4964898;28;20113;-75
2022/04/20 07:04:41;;;;;;;5.25;3.42;;;9.30;94.30;;;;;;4959649;28;20138;-75
2022/04/20 07:07:07;;;;;;;4.68;4.28;;;9.30;94.20;;;;;;4965226;28;20051;-75
2022/04/20 07:09:32;;;;;;;3.75;3.38;;;9.30;94.10;;;;;;4960650;28;20027;-76
2022/04/20 07:11:58;;;;;;;3.63;3.33;;;9.40;94.10;;;;;;4955885;28;20036;-76
2022/04/20 07:14:25;;;;;;;4.57;4.13;;;9.50;94.10;;;;;;4956406;28;20042;-75
2022/04/20 07:16:50;;;;;;;8.80;3.60;;;9.50;94.00;;;;;;4954852;28;20030;-74
2022/04/20 07:19:17;;;;;;;4.55;3.70;;;9.60;94.20;;;;;;4953424;29;20031;-76
2022/04/20 07:21:43;;;;;;;4.20;3.80;;;9.80;93.80;;;;;;4953840;28;20038;-74
2022/04/20 07:24:08;;;;;;;3.85;3.53;;;10.00;93.40;;;;;;4958996;28;20133;-75
2022/04/20 07:26:34;;;;;;;4.07;3.15;;;10.00;93.20;;;;;;4960698;28;20054;-75
2022/04/20 07:28:59;;;;;;;4.43;3.30;;;9.90;93.10;;;;;;4954032;28;20019;-75
2022/04/20 07:31:25;;;;;;;3.15;2.85;;;9.90;93.30;;;;;;4959040;28;20027;-75
2022/04/20 07:33:50;;;;;;;3.70;3.30;;;10.00;92.80;;;;;;4942892;28;20034;-75
2022/04/20 07:36:16;;;;;;;4.95;3.38;;;10.00;92.80;;;;;;4965550;28;20035;-76
2022/04/20 07:38:42;;;;;;;4.13;2.80;;;10.00;92.60;;;;;;4956922;28;20031;-75
2022/04/20 07:41:08;;;;;;;3.78;3.47;;;10.10;93.10;;;;;;4958318;28;20031;-74
2022/04/20 07:43:33;;;;;;;5.35;3.67;;;10.10;92.80;;;;;;4941216;29;20429;-75
2022/04/20 07:45:59;;;;;;;8.68;4.35;;;10.00;92.70;;;;;;4956569;28;20383;-74
2022/04/20 07:48:25;;;;;;;3.90;3.50;;;10.20;92.90;;;;;;4962204;28;20027;-75
2022/04/20 07:50:50;;;;;;;6.47;3.42;;;10.10;92.60;;;;;;4956984;28;20031;-74
2022/04/20 07:53:16;;;;;;;3.55;3.25;;;10.20;92.50;;;;;;4958042;28;20129;-75
2022/04/20 07:55:46;;;;;;;3.63;3.17;;;10.50;92.20;;;;;;4957496;28;20169;-75
2022/04/20 07:58:12;;;;;;;4.90;3.05;;;10.70;91.80;;;;;;4955742;29;20114;-75
2022/04/20 08:00:38;;;;;;;8.20;3.80;;;10.70;91.50;;;;;;4955474;29;20035;-75
2022/04/20 08:03:12;;;;;;;6.30;3.15;;;10.80;91.20;;;;;;4955684;28;20043;-74
2022/04/20 08:05:38;;;;;;;3.05;2.70;;;10.90;90.90;;;;;;4954267;28;20019;-75
2022/04/20 08:08:04;;;;;;;3.40;3.10;;;11.00;91.00;;;;;;4954839;29;20039;-74
2022/04/20 08:10:29;;;;;;;4.05;3.33;;;11.10;90.70;;;;;;4938206;29;20027;-76
2022/04/20 08:12:55;;;;;;;3.53;2.88;;;11.10;90.80;;;;;;4937999;29;20028;-76
2022/04/20 08:15:20;;;;;;;4.53;3.40;;;11.10;90.30;;;;;;4955859;29;20035;-75
2022/04/20 08:17:46;;;;;;;3.28;3.03;;;11.10;90.30;;;;;;4955192;29;20027;-75
2022/04/20 08:20:12;;;;;;;3.65;3.35;;;11.10;90.10;;;;;;4953989;28;20038;-74
2022/04/20 08:22:42;;;;;;;3.10;2.90;;;11.30;89.90;;;;;;4961410;28;20059;-75
2022/04/20 08:25:09;;;;;;;3.30;2.87;;;11.40;89.60;;;;;;4960356;28;20054;-75
2022/04/20 08:27:35;;;;;;;3.38;2.88;;;11.30;89.40;;;;;;4955914;28;20037;-76
2022/04/20 08:30:00;;;;;;;3.80;3.40;;;11.20;89.40;;;;;;4939049;29;20023;-76
2022/04/20 08:32:26;;;;;;;4.32;3.17;;;11.10;90.10;;;;;;4956177;28;20445;-75
2022/04/20 08:34:51;;;;;;;3.90;3.50;;;11.20;89.20;;;;;;4956746;28;20173;-77
2022/04/20 08:37:17;;;;;;;3.33;2.97;;;11.20;88.40;;;;;;4961751;28;20226;-80
2022/04/20 08:39:43;;;;;;;3.50;3.20;;;11.20;87.90;;;;;;4938016;29;20118;-78
2022/04/20 08:42:12;;;;;;;3.47;3.17;;;11.40;87.70;;;;;;4938197;29;20031;-79
2022/04/20 08:44:42;;;;;;;6.47;3.13;;;11.50;87.60;;;;;;4947183;29;20040;-77
2022/04/20 08:47:12;;;;;;;4.47;2.97;;;11.50;88.00;;;;;;4960568;28;20529;-79
2022/04/20 08:49:42;;;;;;;3.38;3.00;;;11.70;87.80;;;;;;4940094;29;20027;-79
2022/04/20 08:54:54;;;;;;;3.75;3.00;;;11.70;85.40;;;;;;4950340;28;20664;-79
2022/04/20 08:57:20;;;;;;;3.65;3.03;;;11.60;84.90;;;;;;4938331;29;20034;-79
2022/04/20 08:59:51;;;;;;;6.03;3.17;;;11.70;84.20;;;;;;4956551;29;20019;-78
2022/04/20 09:02:18;;;;;;;2.78;2.38;;;11.70;84.50;;;;;;4952176;28;20126;-78
2022/04/20 09:04:44;;;;;;;5.30;3.40;;;11.70;82.00;;;;;;4961135;28;20082;-79
2022/04/20 09:07:12;;;;;;;3.78;2.75;;;11.70;83.00;;;;;;4955592;28;20039;-78
2022/04/20 09:09:38;;;;;;;2.83;2.40;;;11.80;82.60;;;;;;4957678;28;20055;-80
2022/04/20 09:12:10;;;;;;;3.92;3.20;;;12.10;82.80;;;;;;4938283;28;20489;-79
2022/04/20 09:14:36;;;;;;;3.55;2.78;;;12.40;84.10;;;;;;4956281;28;20071;-78
2022/04/20 09:17:02;;;;;;;3.25;2.25;;;12.40;83.60;;;;;;4954052;28;20027;-79
2022/04/20 09:19:28;;;;;;;4.13;2.17;;;12.50;80.90;;;;;;4943790;28;20105;-78
2022/04/20 09:21:55;;;;;;;2.30;2.10;;;12.50;78.50;;;;;;4961815;28;20035;-79
2022/04/20 09:24:21;;;;;;;3.42;2.85;;;12.40;77.70;;;;;;4968030;28;20043;-78
2022/04/20 09:27:05;;;;;;;4.25;2.78;;;12.40;78.70;;;;;;4938528;29;20081;-78
2022/04/20 09:29:30;;;;;;;2.50;2.30;;;12.30;77.90;;;;;;4962699;28;20386;-79
2022/04/20 09:31:56;;;;;;;5.47;2.97;;;12.50;78.80;;;;;;4967647;28;20019;-79
2022/04/20 09:34:56;;;;;;;2.72;2.53;;;12.60;76.50;;;;;;4937928;29;20433;-79
2022/04/20 09:37:22;;;;;;;3.45;2.40;;;12.60;76.40;;;;;;4936066;29;20075;-78
2022/04/20 09:39:50;;;;;;;2.88;2.30;;;12.50;76.50;;;;;;4957460;29;20039;-79
2022/04/20 09:42:16;;;;;;;3.53;2.22;;;12.50;76.50;;;;;;4938840;29;20027;-81
2022/04/20 09:45:01;;;;;;;2.38;2.00;;;12.40;75.90;;;;;;4939023;28;20023;-79
2022/04/20 09:50:35;;;;;;;6.63;3.83;;;12.60;73.90;;;;;;4959865;28;20042;-79
2022/04/20 09:53:06;;;;;;;4.30;2.20;;;12.80;73.50;;;;;;4940171;29;20035;-78
2022/04/20 09:55:32;;;;;;;5.13;2.08;;;12.80;71.00;;;;;;4935034;29;20023;-79
2022/04/20 09:58:21;;;;;;;2.40;2.20;;;12.70;72.10;;;;;;4940038;29;20086;-80
2022/04/20 10:00:51;;;;;;;6.38;2.63;;;12.60;71.70;;;;;;4954240;28;20366;-78
2022/04/20 10:03:24;;;;;;;2.58;2.20;;;12.80;73.00;;;;;;4955922;28;20063;-76
2022/04/20 10:05:50;;;;;;;4.18;2.67;;;13.10;73.10;;;;;;4955884;28;20019;-79
2022/04/20 10:08:17;;;;;;;3.63;3.10;;;13.20;72.80;;;;;;4955389;28;20501;-79
2022/04/20 10:10:44;;;;;;;2.53;2.33;;;13.30;73.70;;;;;;4948577;28;20057;-79
2022/04/20 10:13:10;;;;;;;3.55;2.67;;;13.30;72.50;;;;;;4955068;28;20445;-81
2022/04/20 10:18:22;;;;;;;4.82;2.60;;;13.20;73.60;;;;;;4948731;28;20089;-81
2022/04/20 10:20:50;;;;;;;4.03;2.60;;;13.30;72.00;;;;;;4938037;29;20118;-78
2022/04/20 10:23:19;;;;;;;2.60;2.40;;;13.30;72.70;;;;;;4955471;29;20070;-79
2022/04/20 10:25:45;;;;;;;2.63;2.35;;;13.20;71.90;;;;;;4948845;28;20038;-79
2022/04/20 10:28:48;;;;;;;2.67;2.47;;;13.20;72.10;;;;;;4954151;28;20019;-80
2022/04/20 10:31:37;;;;;;;2.72;2.17;;;13.20;71.70;;;;;;4939026;28;20072;-77
2022/04/20 10:34:04;;;;;;;2.83;2.13;;;13.50;72.20;;;;;;4952621;29;20023;-81
2022/04/20 10:36:32;;;;;;;5.85;3.03;;;13.70;71.90;;;;;;4956220;28;20034;-80
2022/04/20 10:39:18;;;;;;;4.05;2.78;;;13.90;71.50;;;;;;4955797;28;20032;-80
2022/04/20 10:42:09;;;;;;;2.30;2.10;;;14.00;70.60;;;;;;4938853;29;20024;-81
2022/04/20 10:44:50;;;;;;;3.78;2.25;;;13.80;70.50;;;;;;4946038;28;20023;-79
2022/04/20 10:47:23;;;;;;;3.72;2.22;;;14.10;69.50;;;;;;4953645;28;20057;-79
2022/04/20 10:49:53;;;;;;;2.40;1.92;;;14.10;68.90;;;;;;4961873;28;20038;-79
2022/04/20 10:52:29;;;;;;;2.55;2.35;;;14.30;68.20;;;;;;4954340;28;20055;-78
2022/04/20 10:54:56;;;;;;;2.78;2.25;;;14.40;67.10;;;;;;4958234;28;20031;-79
2022/04/20 10:57:42;;;;;;;2.83;2.50;;;14.20;66.60;;;;;;4935163;28;20123;-79
2022/04/20 11:00:20;;;;;;;2.47;2.28;;;14.20;66.80;;;;;;4956325;28;20032;-79
2022/04/20 11:02:53;;;;;;;2.38;2.10;;;14.10;65.80;;;;;;4949860;28;20027;-78
2022/04/20 11:05:23;;;;;;;4.95;2.30;;;13.90;64.80;;;;;;4955747;28;20015;-79
2022/04/20 11:08:02;;;;;;;3.00;1.98;;;14.00;65.70;;;;;;4956556;28;20034;-77
2022/04/20 11:10:28;;;;;;;2.38;2.17;;;14.10;66.50;;;;;;4947440;28;20055;-80
2022/04/20 11:19:09;;;;;;;22.65;6.95;;;14.30;65.40;;;;;;4947444;28;20067;-79
2022/04/20 11:21:36;;;;;;;5.15;2.50;;;14.00;66.00;;;;;;4948904;28;20037;-78
2022/04/20 11:24:10;;;;;;;2.25;1.95;;;14.20;66.60;;;;;;4952620;28;20031;-77
2022/04/20 11:26:41;;;;;;;2.83;1.98;;;14.40;65.20;;;;;;4949058;29;20617;-79
2022/04/20 11:29:15;;;;;;;2.28;2.08;;;14.70;63.30;;;;;;4958849;28;20063;-79
2022/04/20 11:31:43;;;;;;;3.38;2.50;;;14.50;63.50;;;;;;4953331;28;20396;-81
2022/04/20 11:34:10;;;;;;;3.95;2.28;;;14.40;63.20;;;;;;4951395;29;20086;-78
2022/04/20 11:36:46;;;;;;;4.47;2.83;;;14.50;62.80;;;;;;4936866;29;20106;-78
2022/04/20 11:39:13;;;;;;;2.58;2.38;;;14.50;63.40;;;;;;4940450;29;20038;-78
2022/04/20 11:41:48;;;;;;;2.70;2.17;;;14.70;63.30;;;;;;4931967;29;20485;-78
2022/04/20 11:44:27;;;;;;;2.47;2.25;;;14.80;63.90;;;;;;4938148;28;20030;-77
2022/04/20 11:46:58;;;;;;;2.22;1.98;;;14.70;64.50;;;;;;4940365;29;20055;-78
2022/04/20 11:49:35;;;;;;;2.45;2.25;;;14.70;62.60;;;;;;4948586;28;20030;-78
2022/04/20 11:52:03;;;;;;;3.97;2.00;;;14.70;62.60;;;;;;4961607;28;20456;-77
2022/04/20 11:54:29;;;;;;;2.30;2.10;;;14.70;61.80;;;;;;4934157;29;20397;-79
2022/04/20 11:56:55;;;;;;;2.20;2.00;;;14.70;61.60;;;;;;4958780;28;20047;-78
2022/04/20 11:59:24;;;;;;;5.90;2.95;;;14.60;62.80;;;;;;4949411;29;20015;-77
2022/04/20 12:01:51;;;;;;;2.65;2.33;;;14.80;62.70;;;;;;4933578;29;20098;-78
2022/04/20 12:04:18;;;;;;;3.08;2.80;;;14.70;62.90;;;;;;4952423;28;20466;-79
2022/04/20 12:06:56;;;;;;;2.97;2.30;;;14.90;63.20;;;;;;4963723;28;20023;-79
2022/04/20 12:09:25;;;;;;;3.53;2.85;;;15.10;64.00;;;;;;4939102;29;20027;-78
2022/04/20 12:11:56;;;;;;;2.42;2.22;;;15.40;61.60;;;;;;4939623;29;20111;-77
2022/04/20 12:14:25;;;;;;;2.58;2.38;;;15.40;61.00;;;;;;4939431;29;20019;-77
2022/04/20 12:16:55;;;;;;;2.40;2.20;;;15.40;60.20;;;;;;4956616;29;20050;-78
2022/04/20 12:19:22;;;;;;;2.90;2.60;;;14.80;61.10;;;;;;4940005;29;20515;-79
2022/04/20 12:21:49;;;;;;;6.18;2.65;;;15.20;61.70;;;;;;4956315;29;20070;-77
2022/04/20 12:24:19;;;;;;;4.03;2.40;;;15.40;62.50;;;;;;4925017;29;20023;-78
2022/04/20 12:26:47;;;;;;;2.25;2.05;;;15.50;61.70;;;;;;4947193;28;20078;-77
2022/04/20 12:29:14;;;;;;;3.00;2.25;;;15.50;61.20;;;;;;4958925;28;20099;-78
2022/04/20 12:31:42;;;;;;;3.53;2.05;;;15.40;59.60;;;;;;4937699;29;20111;-78
2022/04/20 12:34:08;;;;;;;3.08;2.30;;;15.20;59.80;;;;;;4937330;29;20049;-78
2022/04/20 12:36:49;;;;;;;3.67;2.58;;;15.00;61.30;;;;;;4957568;28;20102;-78
2022/04/20 12:39:31;;;;;;;3.55;2.50;;;15.20;60.50;;;;;;4955845;29;20094;-78
2022/04/20 12:42:19;;;;;;;5.25;2.03;;;15.50;59.90;;;;;;4944493;28;20027;-77
2022/04/20 12:44:51;;;;;;;1.70;1.50;;;15.60;58.00;;;;;;4935718;28;20052;-77
2022/04/20 12:47:17;;;;;;;3.03;2.08;;;15.60;59.10;;;;;;4953885;28;20038;-78
2022/04/20 12:49:51;;;;;;;5.07;2.10;;;15.80;59.90;;;;;;4956457;28;20513;-78
2022/04/20 12:52:31;;;;;;;1.92;1.83;;;16.00;59.40;;;;;;4938737;28;20470;-78
2022/04/20 12:55:10;;;;;;;6.32;1.95;;;16.30;59.10;;;;;;4960857;28;20063;-78
2022/04/20 13:03:35;;;;;;;2.10;1.90;;;16.00;59.80;;;;;;4955306;29;20050;-78
2022/04/20 13:06:01;;;;;;;3.65;2.10;;;16.00;58.70;;;;;;4937402;29;20489;-79
2022/04/20 13:08:26;;;;;;;2.20;1.90;;;16.10;59.10;;;;;;4954777;28;20031;-78
2022/04/20 13:10:52;;;;;;;5.35;2.25;;;16.20;58.20;;;;;;4959809;28;20035;-78
2022/04/20 13:13:24;;;;;;;2.78;1.73;;;16.10;57.90;;;;;;4955695;29;20037;-78
2022/04/20 13:15:50;;;;;;;3.83;2.00;;;16.20;58.30;;;;;;4938136;29;20023;-78
2022/04/20 13:18:15;;;;;;;2.83;2.28;;;16.10;59.10;;;;;;4933991;29;20055;-80
2022/04/20 13:20:41;;;;;;;2.60;2.17;;;16.20;59.30;;;;;;4959094;28;20026;-78
2022/04/20 13:23:07;;;;;;;2.88;2.08;;;16.00;59.50;;;;;;4964147;28;20038;-77
2022/04/20 13:28:16;;;;;;;2.17;1.77;;;15.90;57.80;;;;;;4949183;28;20054;-75
2022/04/20 13:30:42;;;;;;;2.78;2.10;;;16.10;58.00;;;;;;4954164;29;20047;-76
2022/04/20 13:33:12;;;;;;;2.58;1.75;;;16.00;56.80;;;;;;4954112;29;20035;-75
2022/04/20 13:35:42;;;;;;;3.70;1.90;;;16.10;57.40;;;;;;4956735;28;20093;-74
2022/04/20 13:38:09;;;;;;;2.28;1.60;;;16.30;56.60;;;;;;4960084;28;20281;-76